Forside
METAR-TAF:

METAR-TAF

Lufthavne :

Henderson City-County Airport

Henderson, Kentucky, USA

Breddekreds: 37-49N, længdekreds: 087-41W, højde: 117 m

Aktuelle vejr

Denne rapport blev lavet for 24 minutter siden, kl. 16:56 UTC
Vind 11 kt fra sydvest
Temperatur 9°C
Fugtighed 53%
Tryk 1021 hPa
Sigt: 16.1 km
Overskyet i en højde af 6000 ft

METAR: KEHR 231656Z AUTO 23011KT 10SM OVC060 09/00 A3014 RMK AO2 SLP210 T00890000

Tid: 11:20 (17:20 UTC)


TAF: fraværende

Vejrobservationer og prognoser fra mere end 4000 lufthavne (METAR og TAF).

De gule og røde prikker repræsenterer de meteorologiske stationer.

Flyt musen over at se navnet på stationen.

Så klik over at se vejr observationer og prognoser.

At skifte det kort: Klik på de grønne knapper med et sort kors for at zoome ind; på den grønne knap med en bindestreg for at zoome ud; eller på de grønne pile for tilstødende kort.


METAR-TAF: